sensor_id;sensor_type;location;lat;lon;timestamp;temperature;humidity
47861;HTU21D;33620;52.340;5.984;2024-03-02T00:01:58;8.98;73.14
47861;HTU21D;33620;52.340;5.984;2024-03-02T00:04:23;9.00;73.44
47861;HTU21D;33620;52.340;5.984;2024-03-02T00:06:52;8.94;72.91
47861;HTU21D;33620;52.340;5.984;2024-03-02T00:09:18;8.96;73.07
47861;HTU21D;33620;52.340;5.984;2024-03-02T00:11:43;8.95;73.32
47861;HTU21D;33620;52.340;5.984;2024-03-02T00:14:09;8.94;73.11
47861;HTU21D;33620;52.340;5.984;2024-03-02T00:16:34;8.96;72.94
47861;HTU21D;33620;52.340;5.984;2024-03-02T00:19:05;8.97;73.14
47861;HTU21D;33620;52.340;5.984;2024-03-02T00:21:31;8.97;73.25
47861;HTU21D;33620;52.340;5.984;2024-03-02T00:23:57;8.98;73.06
47861;HTU21D;33620;52.340;5.984;2024-03-02T00:26:22;8.96;72.98
47861;HTU21D;33620;52.340;5.984;2024-03-02T00:28:48;9.00;72.98
47861;HTU21D;33620;52.340;5.984;2024-03-02T00:31:15;8.98;73.12
47861;HTU21D;33620;52.340;5.984;2024-03-02T00:33:44;8.97;72.85
47861;HTU21D;33620;52.340;5.984;2024-03-02T00:36:11;9.02;72.93
47861;HTU21D;33620;52.340;5.984;2024-03-02T00:38:49;8.98;72.99
47861;HTU21D;33620;52.340;5.984;2024-03-02T00:41:31;8.98;73.25
47861;HTU21D;33620;52.340;5.984;2024-03-02T00:44:04;9.00;73.38
47861;HTU21D;33620;52.340;5.984;2024-03-02T00:46:35;9.01;73.21
47861;HTU21D;33620;52.340;5.984;2024-03-02T00:49:03;9.04;73.30
47861;HTU21D;33620;52.340;5.984;2024-03-02T00:51:30;9.06;73.44
47861;HTU21D;33620;52.340;5.984;2024-03-02T00:53:59;9.06;72.95
47861;HTU21D;33620;52.340;5.984;2024-03-02T00:56:25;9.10;73.21
47861;HTU21D;33620;52.340;5.984;2024-03-02T00:58:52;9.12;73.22
47861;HTU21D;33620;52.340;5.984;2024-03-02T01:01:17;9.14;73.45
47861;HTU21D;33620;52.340;5.984;2024-03-02T01:03:43;9.15;73.42
47861;HTU21D;33620;52.340;5.984;2024-03-02T01:06:09;9.17;73.22
47861;HTU21D;33620;52.340;5.984;2024-03-02T01:08:37;9.18;73.12
47861;HTU21D;33620;52.340;5.984;2024-03-02T01:11:03;9.20;73.33
47861;HTU21D;33620;52.340;5.984;2024-03-02T01:13:29;9.19;73.16
47861;HTU21D;33620;52.340;5.984;2024-03-02T01:15:56;9.18;73.28
47861;HTU21D;33620;52.340;5.984;2024-03-02T01:18:21;9.22;73.20
47861;HTU21D;33620;52.340;5.984;2024-03-02T01:20:48;9.23;73.22
47861;HTU21D;33620;52.340;5.984;2024-03-02T01:23:13;9.25;73.08
47861;HTU21D;33620;52.340;5.984;2024-03-02T01:25:39;9.26;72.99
47861;HTU21D;33620;52.340;5.984;2024-03-02T01:28:05;9.27;72.85
47861;HTU21D;33620;52.340;5.984;2024-03-02T01:30:30;9.26;72.75
47861;HTU21D;33620;52.340;5.984;2024-03-02T01:32:56;9.31;72.93
47861;HTU21D;33620;52.340;5.984;2024-03-02T01:35:21;9.30;72.87
47861;HTU21D;33620;52.340;5.984;2024-03-02T01:37:46;9.30;72.99
47861;HTU21D;33620;52.340;5.984;2024-03-02T01:40:12;9.30;72.99
47861;HTU21D;33620;52.340;5.984;2024-03-02T01:42:38;9.30;72.91
47861;HTU21D;33620;52.340;5.984;2024-03-02T01:45:08;9.32;72.76
47861;HTU21D;33620;52.340;5.984;2024-03-02T01:47:34;9.32;72.77
47861;HTU21D;33620;52.340;5.984;2024-03-02T01:50:00;9.31;72.87
47861;HTU21D;33620;52.340;5.984;2024-03-02T01:52:26;9.33;72.74
47861;HTU21D;33620;52.340;5.984;2024-03-02T01:54:52;9.36;72.83
47861;HTU21D;33620;52.340;5.984;2024-03-02T01:57:18;9.38;72.50
47861;HTU21D;33620;52.340;5.984;2024-03-02T01:59:44;9.35;72.55
47861;HTU21D;33620;52.340;5.984;2024-03-02T02:02:09;9.31;72.84
47861;HTU21D;33620;52.340;5.984;2024-03-02T02:04:35;9.36;73.04
47861;HTU21D;33620;52.340;5.984;2024-03-02T02:07:00;9.37;73.32
47861;HTU21D;33620;52.340;5.984;2024-03-02T02:09:26;9.34;73.49
47861;HTU21D;33620;52.340;5.984;2024-03-02T02:11:51;9.34;73.83
47861;HTU21D;33620;52.340;5.984;2024-03-02T02:14:17;9.32;74.05
47861;HTU21D;33620;52.340;5.984;2024-03-02T02:16:42;9.30;74.38
47861;HTU21D;33620;52.340;5.984;2024-03-02T02:19:08;9.31;74.63
47861;HTU21D;33620;52.340;5.984;2024-03-02T02:21:34;9.25;74.89
47861;HTU21D;33620;52.340;5.984;2024-03-02T02:23:59;9.27;75.00
47861;HTU21D;33620;52.340;5.984;2024-03-02T02:26:26;9.25;75.33
47861;HTU21D;33620;52.340;5.984;2024-03-02T02:28:52;9.25;75.48
47861;HTU21D;33620;52.340;5.984;2024-03-02T02:31:17;9.24;75.59
47861;HTU21D;33620;52.340;5.984;2024-03-02T02:33:42;9.21;75.67
47861;HTU21D;33620;52.340;5.984;2024-03-02T02:36:08;9.20;76.04
47861;HTU21D;33620;52.340;5.984;2024-03-02T02:38:38;9.19;76.17
47861;HTU21D;33620;52.340;5.984;2024-03-02T02:41:04;9.18;76.29
47861;HTU21D;33620;52.340;5.984;2024-03-02T02:43:29;9.17;76.44
47861;HTU21D;33620;52.340;5.984;2024-03-02T02:45:55;9.16;76.57
47861;HTU21D;33620;52.340;5.984;2024-03-02T02:48:20;9.12;76.74
47861;HTU21D;33620;52.340;5.984;2024-03-02T02:50:45;9.10;76.88
47861;HTU21D;33620;52.340;5.984;2024-03-02T02:53:11;9.09;76.89
47861;HTU21D;33620;52.340;5.984;2024-03-02T02:55:36;9.09;76.89
47861;HTU21D;33620;52.340;5.984;2024-03-02T02:58:05;9.08;76.97
47861;HTU21D;33620;52.340;5.984;2024-03-02T03:00:31;9.08;77.08
47861;HTU21D;33620;52.340;5.984;2024-03-02T03:02:56;9.08;77.05
47861;HTU21D;33620;52.340;5.984;2024-03-02T03:05:22;9.08;77.03
47861;HTU21D;33620;52.340;5.984;2024-03-02T03:07:47;9.07;77.11
47861;HTU21D;33620;52.340;5.984;2024-03-02T03:10:15;9.05;77.24
47861;HTU21D;33620;52.340;5.984;2024-03-02T03:12:41;9.04;77.35
47861;HTU21D;33620;52.340;5.984;2024-03-02T03:15:08;9.01;77.37
47861;HTU21D;33620;52.340;5.984;2024-03-02T03:17:34;9.03;77.34
47861;HTU21D;33620;52.340;5.984;2024-03-02T03:20:00;9.02;77.28
47861;HTU21D;33620;52.340;5.984;2024-03-02T03:22:26;9.02;77.31
47861;HTU21D;33620;52.340;5.984;2024-03-02T03:24:51;9.02;77.31
47861;HTU21D;33620;52.340;5.984;2024-03-02T03:27:17;9.00;77.40
47861;HTU21D;33620;52.340;5.984;2024-03-02T03:29:42;9.00;77.37
47861;HTU21D;33620;52.340;5.984;2024-03-02T03:32:08;9.00;77.72
47861;HTU21D;33620;52.340;5.984;2024-03-02T03:34:34;8.98;77.95
47861;HTU21D;33620;52.340;5.984;2024-03-02T03:36:59;8.95;78.15
47861;HTU21D;33620;52.340;5.984;2024-03-02T03:39:25;8.93;78.25
47861;HTU21D;33620;52.340;5.984;2024-03-02T03:41:50;8.90;78.70
47861;HTU21D;33620;52.340;5.984;2024-03-02T03:44:16;8.88;78.96
47861;HTU21D;33620;52.340;5.984;2024-03-02T03:46:41;8.87;79.00
47861;HTU21D;33620;52.340;5.984;2024-03-02T03:49:07;8.85;79.30
47861;HTU21D;33620;52.340;5.984;2024-03-02T03:51:33;8.83;79.40
47861;HTU21D;33620;52.340;5.984;2024-03-02T03:53:58;8.80;79.43
47861;HTU21D;33620;52.340;5.984;2024-03-02T03:56:24;8.76;79.55
47861;HTU21D;33620;52.340;5.984;2024-03-02T03:58:49;8.72;79.78
47861;HTU21D;33620;52.340;5.984;2024-03-02T04:01:14;8.67;80.03
47861;HTU21D;33620;52.340;5.984;2024-03-02T04:03:40;8.65;80.24
47861;HTU21D;33620;52.340;5.984;2024-03-02T04:06:05;8.63;80.37
47861;HTU21D;33620;52.340;5.984;2024-03-02T04:08:31;8.61;80.36
47861;HTU21D;33620;52.340;5.984;2024-03-02T04:10:56;8.61;80.65
47861;HTU21D;33620;52.340;5.984;2024-03-02T04:13:22;8.60;80.68
47861;HTU21D;33620;52.340;5.984;2024-03-02T04:15:47;8.57;80.85
47861;HTU21D;33620;52.340;5.984;2024-03-02T04:18:12;8.45;81.35
47861;HTU21D;33620;52.340;5.984;2024-03-02T04:20:38;8.45;81.75
47861;HTU21D;33620;52.340;5.984;2024-03-02T04:23:03;8.45;81.92
47861;HTU21D;33620;52.340;5.984;2024-03-02T04:25:29;8.42;82.13
47861;HTU21D;33620;52.340;5.984;2024-03-02T04:27:54;8.41;82.43
47861;HTU21D;33620;52.340;5.984;2024-03-02T04:30:19;8.39;82.63
47861;HTU21D;33620;52.340;5.984;2024-03-02T04:32:45;8.39;82.75
47861;HTU21D;33620;52.340;5.984;2024-03-02T04:35:12;8.42;82.87
47861;HTU21D;33620;52.340;5.984;2024-03-02T04:37:38;8.42;83.04
47861;HTU21D;33620;52.340;5.984;2024-03-02T04:40:04;8.42;83.13
47861;HTU21D;33620;52.340;5.984;2024-03-02T04:42:33;8.45;83.05
47861;HTU21D;33620;52.340;5.984;2024-03-02T04:44:58;8.43;83.19
47861;HTU21D;33620;52.340;5.984;2024-03-02T04:47:23;8.43;83.16
47861;HTU21D;33620;52.340;5.984;2024-03-02T04:49:49;8.44;83.27
47861;HTU21D;33620;52.340;5.984;2024-03-02T04:52:14;8.44;83.11
47861;HTU21D;33620;52.340;5.984;2024-03-02T04:54:39;8.42;83.25
47861;HTU21D;33620;52.340;5.984;2024-03-02T04:57:40;8.41;83.23
47861;HTU21D;33620;52.340;5.984;2024-03-02T05:00:06;8.38;83.26
47861;HTU21D;33620;52.340;5.984;2024-03-02T05:02:34;8.36;83.25
47861;HTU21D;33620;52.340;5.984;2024-03-02T05:04:59;8.35;83.26
47861;HTU21D;33620;52.340;5.984;2024-03-02T05:07:24;8.35;83.23
47861;HTU21D;33620;52.340;5.984;2024-03-02T05:09:50;8.33;83.21
47861;HTU21D;33620;52.340;5.984;2024-03-02T05:12:15;8.33;83.29
47861;HTU21D;33620;52.340;5.984;2024-03-02T05:14:41;8.32;83.45
47861;HTU21D;33620;52.340;5.984;2024-03-02T05:17:06;8.32;83.39
47861;HTU21D;33620;52.340;5.984;2024-03-02T05:19:31;8.32;83.61
47861;HTU21D;33620;52.340;5.984;2024-03-02T05:21:57;8.33;83.71
47861;HTU21D;33620;52.340;5.984;2024-03-02T05:24:22;8.32;83.59
47861;HTU21D;33620;52.340;5.984;2024-03-02T05:26:47;8.31;83.65
47861;HTU21D;33620;52.340;5.984;2024-03-02T05:29:13;8.30;83.49
47861;HTU21D;33620;52.340;5.984;2024-03-02T05:31:38;8.29;83.36
47861;HTU21D;33620;52.340;5.984;2024-03-02T05:34:03;8.26;83.28
47861;HTU21D;33620;52.340;5.984;2024-03-02T05:36:30;8.19;83.09
47861;HTU21D;33620;52.340;5.984;2024-03-02T05:38:56;8.16;83.04
47861;HTU21D;33620;52.340;5.984;2024-03-02T05:41:22;8.14;83.15
47861;HTU21D;33620;52.340;5.984;2024-03-02T05:43:47;8.13;83.32
47861;HTU21D;33620;52.340;5.984;2024-03-02T05:46:13;8.13;83.33
47861;HTU21D;33620;52.340;5.984;2024-03-02T05:48:38;8.13;83.26
47861;HTU21D;33620;52.340;5.984;2024-03-02T05:51:04;8.13;83.32
47861;HTU21D;33620;52.340;5.984;2024-03-02T05:53:29;8.13;83.13
47861;HTU21D;33620;52.340;5.984;2024-03-02T05:55:54;8.13;83.12
47861;HTU21D;33620;52.340;5.984;2024-03-02T05:58:21;8.07;83.15
47861;HTU21D;33620;52.340;5.984;2024-03-02T06:01:06;8.05;83.00
47861;HTU21D;33620;52.340;5.984;2024-03-02T06:03:32;7.99;82.87
47861;HTU21D;33620;52.340;5.984;2024-03-02T06:05:57;7.93;82.94
47861;HTU21D;33620;52.340;5.984;2024-03-02T06:08:22;7.89;82.85
47861;HTU21D;33620;52.340;5.984;2024-03-02T06:10:48;7.84;82.98
47861;HTU21D;33620;52.340;5.984;2024-03-02T06:13:13;7.78;82.90
47861;HTU21D;33620;52.340;5.984;2024-03-02T06:15:38;7.74;83.00
47861;HTU21D;33620;52.340;5.984;2024-03-02T06:18:04;7.71;83.07
47861;HTU21D;33620;52.340;5.984;2024-03-02T06:20:31;7.71;82.99
47861;HTU21D;33620;52.340;5.984;2024-03-02T06:22:57;7.67;83.13
47861;HTU21D;33620;52.340;5.984;2024-03-02T06:25:22;7.62;83.42
47861;HTU21D;33620;52.340;5.984;2024-03-02T06:27:47;7.62;83.43
47861;HTU21D;33620;52.340;5.984;2024-03-02T06:30:13;7.62;83.40
47861;HTU21D;33620;52.340;5.984;2024-03-02T06:32:38;7.61;83.39
47861;HTU21D;33620;52.340;5.984;2024-03-02T06:35:04;7.58;83.32
47861;HTU21D;33620;52.340;5.984;2024-03-02T06:37:30;7.56;83.43
47861;HTU21D;33620;52.340;5.984;2024-03-02T06:39:56;7.54;83.38
47861;HTU21D;33620;52.340;5.984;2024-03-02T06:42:22;7.52;83.47
47861;HTU21D;33620;52.340;5.984;2024-03-02T06:44:47;7.48;83.58
47861;HTU21D;33620;52.340;5.984;2024-03-02T06:47:12;7.46;83.71
47861;HTU21D;33620;52.340;5.984;2024-03-02T06:49:38;7.43;83.78
47861;HTU21D;33620;52.340;5.984;2024-03-02T06:52:03;7.42;83.87
47861;HTU21D;33620;52.340;5.984;2024-03-02T06:54:29;7.43;83.96
47861;HTU21D;33620;52.340;5.984;2024-03-02T06:56:54;7.45;84.07
47861;HTU21D;33620;52.340;5.984;2024-03-02T06:59:19;7.46;83.99
47861;HTU21D;33620;52.340;5.984;2024-03-02T07:01:45;7.48;83.89
47861;HTU21D;33620;52.340;5.984;2024-03-02T07:04:10;7.48;83.87
47861;HTU21D;33620;52.340;5.984;2024-03-02T07:06:36;7.47;83.90
47861;HTU21D;33620;52.340;5.984;2024-03-02T07:09:01;7.48;84.00
47861;HTU21D;33620;52.340;5.984;2024-03-02T07:11:27;7.45;83.88
47861;HTU21D;33620;52.340;5.984;2024-03-02T07:13:52;7.45;83.91
47861;HTU21D;33620;52.340;5.984;2024-03-02T07:16:18;7.45;83.89
47861;HTU21D;33620;52.340;5.984;2024-03-02T07:18:58;7.47;83.78
47861;HTU21D;33620;52.340;5.984;2024-03-02T07:21:24;7.48;83.70
47861;HTU21D;33620;52.340;5.984;2024-03-02T07:23:50;7.48;83.71
47861;HTU21D;33620;52.340;5.984;2024-03-02T07:26:15;7.50;83.70
47861;HTU21D;33620;52.340;5.984;2024-03-02T07:28:43;7.49;83.54
47861;HTU21D;33620;52.340;5.984;2024-03-02T07:31:09;7.48;83.81
47861;HTU21D;33620;52.340;5.984;2024-03-02T07:33:35;7.48;83.87
47861;HTU21D;33620;52.340;5.984;2024-03-02T07:36:00;7.47;83.90
47861;HTU21D;33620;52.340;5.984;2024-03-02T07:38:27;7.46;83.96
47861;HTU21D;33620;52.340;5.984;2024-03-02T07:40:53;7.45;84.23
47861;HTU21D;33620;52.340;5.984;2024-03-02T07:43:19;7.47;84.50
47861;HTU21D;33620;52.340;5.984;2024-03-02T07:45:46;7.52;84.74
47861;HTU21D;33620;52.340;5.984;2024-03-02T07:48:11;7.57;84.74
47861;HTU21D;33620;52.340;5.984;2024-03-02T07:50:37;7.62;84.80
47861;HTU21D;33620;52.340;5.984;2024-03-02T07:53:04;7.68;84.74
47861;HTU21D;33620;52.340;5.984;2024-03-02T07:55:30;7.75;84.67
47861;HTU21D;33620;52.340;5.984;2024-03-02T07:57:58;7.78;84.35
47861;HTU21D;33620;52.340;5.984;2024-03-02T08:00:24;7.83;84.29
47861;HTU21D;33620;52.340;5.984;2024-03-02T08:02:51;7.86;84.41
47861;HTU21D;33620;52.340;5.984;2024-03-02T08:05:17;7.90;84.28
47861;HTU21D;33620;52.340;5.984;2024-03-02T08:07:44;7.91;84.23
47861;HTU21D;33620;52.340;5.984;2024-03-02T08:10:10;7.94;84.07
47861;HTU21D;33620;52.340;5.984;2024-03-02T08:12:36;7.97;83.93
47861;HTU21D;33620;52.340;5.984;2024-03-02T08:15:01;7.99;83.74
47861;HTU21D;33620;52.340;5.984;2024-03-02T08:17:26;8.02;83.20
47861;HTU21D;33620;52.340;5.984;2024-03-02T08:19:52;8.06;83.00
47861;HTU21D;33620;52.340;5.984;2024-03-02T08:22:19;8.11;82.93
47861;HTU21D;33620;52.340;5.984;2024-03-02T08:24:44;8.16;82.92
47861;HTU21D;33620;52.340;5.984;2024-03-02T08:27:10;8.19;82.78
47861;HTU21D;33620;52.340;5.984;2024-03-02T08:29:35;8.23;82.36
47861;HTU21D;33620;52.340;5.984;2024-03-02T08:32:01;8.30;82.12
47861;HTU21D;33620;52.340;5.984;2024-03-02T08:34:26;8.34;81.49
47861;HTU21D;33620;52.340;5.984;2024-03-02T08:36:51;8.41;81.36
47861;HTU21D;33620;52.340;5.984;2024-03-02T08:39:18;8.46;81.41
47861;HTU21D;33620;52.340;5.984;2024-03-02T08:41:45;8.51;81.16
47861;HTU21D;33620;52.340;5.984;2024-03-02T08:44:12;8.57;80.85
47861;HTU21D;33620;52.340;5.984;2024-03-02T08:46:38;8.62;80.66
47861;HTU21D;33620;52.340;5.984;2024-03-02T08:49:03;8.66;80.24
47861;HTU21D;33620;52.340;5.984;2024-03-02T08:51:29;8.73;80.08
47861;HTU21D;33620;52.340;5.984;2024-03-02T08:53:54;8.76;78.79
47861;HTU21D;33620;52.340;5.984;2024-03-02T08:56:20;8.83;78.51
47861;HTU21D;33620;52.340;5.984;2024-03-02T08:58:46;8.91;77.58
47861;HTU21D;33620;52.340;5.984;2024-03-02T09:01:12;8.97;77.64
47861;HTU21D;33620;52.340;5.984;2024-03-02T09:03:37;9.04;77.24
47861;HTU21D;33620;52.340;5.984;2024-03-02T09:06:03;9.08;76.51
47861;HTU21D;33620;52.340;5.984;2024-03-02T09:08:29;9.14;75.79
47861;HTU21D;33620;52.340;5.984;2024-03-02T09:10:55;9.15;75.64
47861;HTU21D;33620;52.340;5.984;2024-03-02T09:13:21;9.20;75.16
47861;HTU21D;33620;52.340;5.984;2024-03-02T09:15:47;9.24;75.18
47861;HTU21D;33620;52.340;5.984;2024-03-02T09:18:13;9.31;74.58
47861;HTU21D;33620;52.340;5.984;2024-03-02T09:20:38;9.31;73.32
47861;HTU21D;33620;52.340;5.984;2024-03-02T09:23:04;9.39;74.15
47861;HTU21D;33620;52.340;5.984;2024-03-02T09:25:29;9.41;73.51
47861;HTU21D;33620;52.340;5.984;2024-03-02T09:27:54;9.49;73.68
47861;HTU21D;33620;52.340;5.984;2024-03-02T09:30:20;9.53;73.73
47861;HTU21D;33620;52.340;5.984;2024-03-02T09:32:45;9.60;73.95
47861;HTU21D;33620;52.340;5.984;2024-03-02T09:35:10;9.66;74.07
47861;HTU21D;33620;52.340;5.984;2024-03-02T09:37:37;9.72;73.80
47861;HTU21D;33620;52.340;5.984;2024-03-02T09:40:03;9.75;73.05
47861;HTU21D;33620;52.340;5.984;2024-03-02T09:42:29;9.76;72.08
47861;HTU21D;33620;52.340;5.984;2024-03-02T09:44:55;9.77;71.12
47861;HTU21D;33620;52.340;5.984;2024-03-02T09:47:20;9.79;69.47
47861;HTU21D;33620;52.340;5.984;2024-03-02T09:49:46;9.82;69.81
47861;HTU21D;33620;52.340;5.984;2024-03-02T09:52:12;9.90;70.31
47861;HTU21D;33620;52.340;5.984;2024-03-02T09:54:39;9.95;70.35
47861;HTU21D;33620;52.340;5.984;2024-03-02T09:57:05;9.99;69.24
47861;HTU21D;33620;52.340;5.984;2024-03-02T09:59:30;10.01;68.71
47861;HTU21D;33620;52.340;5.984;2024-03-02T10:04:27;10.11;68.43
47861;HTU21D;33620;52.340;5.984;2024-03-02T10:07:15;10.16;68.29
47861;HTU21D;33620;52.340;5.984;2024-03-02T10:09:42;10.21;68.60
47861;HTU21D;33620;52.340;5.984;2024-03-02T10:12:09;10.28;68.54
47861;HTU21D;33620;52.340;5.984;2024-03-02T10:14:34;10.34;68.10
47861;HTU21D;33620;52.340;5.984;2024-03-02T10:17:05;10.39;68.98
47861;HTU21D;33620;52.340;5.984;2024-03-02T10:19:31;10.43;66.84
47861;HTU21D;33620;52.340;5.984;2024-03-02T10:21:59;10.45;66.41
47861;HTU21D;33620;52.340;5.984;2024-03-02T10:24:25;10.46;66.51
47861;HTU21D;33620;52.340;5.984;2024-03-02T10:26:51;10.52;66.32
47861;HTU21D;33620;52.340;5.984;2024-03-02T10:29:17;10.55;66.07
47861;HTU21D;33620;52.340;5.984;2024-03-02T10:31:44;10.60;66.76
47861;HTU21D;33620;52.340;5.984;2024-03-02T10:34:11;10.64;64.78
47861;HTU21D;33620;52.340;5.984;2024-03-02T10:36:40;10.64;64.86
47861;HTU21D;33620;52.340;5.984;2024-03-02T10:39:09;10.67;64.62
47861;HTU21D;33620;52.340;5.984;2024-03-02T10:41:36;10.69;63.83
47861;HTU21D;33620;52.340;5.984;2024-03-02T10:44:03;10.72;64.76
47861;HTU21D;33620;52.340;5.984;2024-03-02T10:46:30;10.73;63.60
47861;HTU21D;33620;52.340;5.984;2024-03-02T10:48:56;10.75;63.25
47861;HTU21D;33620;52.340;5.984;2024-03-02T10:51:24;10.83;63.46
47861;HTU21D;33620;52.340;5.984;2024-03-02T10:53:50;10.89;62.86
47861;HTU21D;33620;52.340;5.984;2024-03-02T10:59:13;11.11;63.60
47861;HTU21D;33620;52.340;5.984;2024-03-02T11:01:43;11.18;64.01
47861;HTU21D;33620;52.340;5.984;2024-03-02T11:04:09;11.27;63.15
47861;HTU21D;33620;52.340;5.984;2024-03-02T11:06:37;11.26;63.90
47861;HTU21D;33620;52.340;5.984;2024-03-02T11:09:07;11.33;64.89
47861;HTU21D;33620;52.340;5.984;2024-03-02T11:11:40;11.34;64.24
47861;HTU21D;33620;52.340;5.984;2024-03-02T11:14:07;11.36;64.39
47861;HTU21D;33620;52.340;5.984;2024-03-02T11:16:37;11.38;63.64
47861;HTU21D;33620;52.340;5.984;2024-03-02T11:19:10;11.43;64.89
47861;HTU21D;33620;52.340;5.984;2024-03-02T11:21:36;11.52;63.32
47861;HTU21D;33620;52.340;5.984;2024-03-02T11:24:29;11.51;62.24
47861;HTU21D;33620;52.340;5.984;2024-03-02T11:27:03;11.58;62.59
47861;HTU21D;33620;52.340;5.984;2024-03-02T11:32:13;11.76;63.47
47861;HTU21D;33620;52.340;5.984;2024-03-02T11:34:43;11.78;64.00
47861;HTU21D;33620;52.340;5.984;2024-03-02T11:37:10;11.84;62.30
47861;HTU21D;33620;52.340;5.984;2024-03-02T11:39:38;11.85;61.60
47861;HTU21D;33620;52.340;5.984;2024-03-02T11:42:06;11.89;62.32
47861;HTU21D;33620;52.340;5.984;2024-03-02T11:44:33;11.97;62.33
47861;HTU21D;33620;52.340;5.984;2024-03-02T11:46:59;12.01;63.00
47861;HTU21D;33620;52.340;5.984;2024-03-02T11:49:44;12.04;62.40
47861;HTU21D;33620;52.340;5.984;2024-03-02T11:52:13;12.02;62.28
47861;HTU21D;33620;52.340;5.984;2024-03-02T11:54:42;12.11;62.51
47861;HTU21D;33620;52.340;5.984;2024-03-02T11:57:23;12.19;61.89
47861;HTU21D;33620;52.340;5.984;2024-03-02T11:59:49;12.20;60.66
47861;HTU21D;33620;52.340;5.984;2024-03-02T12:02:16;12.21;58.87
47861;HTU21D;33620;52.340;5.984;2024-03-02T12:04:43;12.19;60.42
47861;HTU21D;33620;52.340;5.984;2024-03-02T12:07:10;12.27;61.09
47861;HTU21D;33620;52.340;5.984;2024-03-02T12:09:36;12.30;60.80
47861;HTU21D;33620;52.340;5.984;2024-03-02T12:12:09;12.30;60.44
47861;HTU21D;33620;52.340;5.984;2024-03-02T12:14:38;12.29;60.79
47861;HTU21D;33620;52.340;5.984;2024-03-02T12:17:06;12.30;60.46
47861;HTU21D;33620;52.340;5.984;2024-03-02T12:19:32;12.33;60.67
47861;HTU21D;33620;52.340;5.984;2024-03-02T12:21:59;12.35;59.96
47861;HTU21D;33620;52.340;5.984;2024-03-02T12:24:27;12.33;60.38
47861;HTU21D;33620;52.340;5.984;2024-03-02T12:26:53;12.36;60.89
47861;HTU21D;33620;52.340;5.984;2024-03-02T12:29:20;12.46;59.57
47861;HTU21D;33620;52.340;5.984;2024-03-02T12:31:48;12.51;60.13
47861;HTU21D;33620;52.340;5.984;2024-03-02T12:34:15;12.58;59.90
47861;HTU21D;33620;52.340;5.984;2024-03-02T12:36:41;12.64;60.84
47861;HTU21D;33620;52.340;5.984;2024-03-02T12:39:08;12.70;59.62
47861;HTU21D;33620;52.340;5.984;2024-03-02T12:41:36;12.67;57.97
47861;HTU21D;33620;52.340;5.984;2024-03-02T12:44:01;12.67;58.75
47861;HTU21D;33620;52.340;5.984;2024-03-02T12:46:27;12.74;58.88
47861;HTU21D;33620;52.340;5.984;2024-03-02T12:48:53;12.73;59.30
47861;HTU21D;33620;52.340;5.984;2024-03-02T12:51:18;12.66;59.51
47861;HTU21D;33620;52.340;5.984;2024-03-02T12:53:43;12.61;59.77
47861;HTU21D;33620;52.340;5.984;2024-03-02T12:56:09;12.61;60.60
47861;HTU21D;33620;52.340;5.984;2024-03-02T12:58:41;12.75;61.69
47861;HTU21D;33620;52.340;5.984;2024-03-02T13:01:07;12.87;60.08
47861;HTU21D;33620;52.340;5.984;2024-03-02T13:03:38;12.89;59.35
47861;HTU21D;33620;52.340;5.984;2024-03-02T13:06:07;12.84;59.43
47861;HTU21D;33620;52.340;5.984;2024-03-02T13:08:35;12.87;60.02
47861;HTU21D;33620;52.340;5.984;2024-03-02T13:11:02;12.90;60.27
47861;HTU21D;33620;52.340;5.984;2024-03-02T13:13:30;12.90;60.83
47861;HTU21D;33620;52.340;5.984;2024-03-02T13:15:56;12.92;59.12
47861;HTU21D;33620;52.340;5.984;2024-03-02T13:18:22;12.95;60.99
47861;HTU21D;33620;52.340;5.984;2024-03-02T13:20:47;12.87;58.94
47861;HTU21D;33620;52.340;5.984;2024-03-02T13:23:13;12.79;59.36
47861;HTU21D;33620;52.340;5.984;2024-03-02T13:25:38;12.78;59.99
47861;HTU21D;33620;52.340;5.984;2024-03-02T13:28:04;12.84;60.04
47861;HTU21D;33620;52.340;5.984;2024-03-02T13:30:29;12.88;60.31
47861;HTU21D;33620;52.340;5.984;2024-03-02T13:32:55;12.79;59.73
47861;HTU21D;33620;52.340;5.984;2024-03-02T13:35:20;12.75;59.89
47861;HTU21D;33620;52.340;5.984;2024-03-02T13:37:45;12.79;59.80
47861;HTU21D;33620;52.340;5.984;2024-03-02T13:40:11;12.91;59.63
47861;HTU21D;33620;52.340;5.984;2024-03-02T13:42:41;13.07;59.88
47861;HTU21D;33620;52.340;5.984;2024-03-02T13:45:07;13.18;58.22
47861;HTU21D;33620;52.340;5.984;2024-03-02T13:47:32;13.24;58.81
47861;HTU21D;33620;52.340;5.984;2024-03-02T13:49:58;13.39;59.33
47861;HTU21D;33620;52.340;5.984;2024-03-02T13:52:23;13.45;58.77
47861;HTU21D;33620;52.340;5.984;2024-03-02T13:54:50;13.38;57.26
47861;HTU21D;33620;52.340;5.984;2024-03-02T13:57:17;13.32;57.59
47861;HTU21D;33620;52.340;5.984;2024-03-02T13:59:45;13.37;57.19
47861;HTU21D;33620;52.340;5.984;2024-03-02T14:02:11;13.45;57.29
47861;HTU21D;33620;52.340;5.984;2024-03-02T14:04:37;13.61;56.91
47861;HTU21D;33620;52.340;5.984;2024-03-02T14:07:04;13.61;56.19
47861;HTU21D;33620;52.340;5.984;2024-03-02T14:09:32;13.58;54.61
47861;HTU21D;33620;52.340;5.984;2024-03-02T14:11:57;13.52;55.87
47861;HTU21D;33620;52.340;5.984;2024-03-02T14:14:23;13.54;55.00
47861;HTU21D;33620;52.340;5.984;2024-03-02T14:16:48;13.51;56.45
47861;HTU21D;33620;52.340;5.984;2024-03-02T14:19:14;13.52;56.29
47861;HTU21D;33620;52.340;5.984;2024-03-02T14:21:39;13.56;56.30
47861;HTU21D;33620;52.340;5.984;2024-03-02T14:24:05;13.58;55.58
47861;HTU21D;33620;52.340;5.984;2024-03-02T14:26:32;13.67;56.93
47861;HTU21D;33620;52.340;5.984;2024-03-02T14:28:58;13.69;55.85
47861;HTU21D;33620;52.340;5.984;2024-03-02T14:31:24;13.67;55.73
47861;HTU21D;33620;52.340;5.984;2024-03-02T14:33:49;13.71;54.90
47861;HTU21D;33620;52.340;5.984;2024-03-02T14:36:14;13.67;56.06
47861;HTU21D;33620;52.340;5.984;2024-03-02T14:38:40;13.66;56.54
47861;HTU21D;33620;52.340;5.984;2024-03-02T14:41:05;13.62;56.55
47861;HTU21D;33620;52.340;5.984;2024-03-02T14:43:30;13.68;57.52
47861;HTU21D;33620;52.340;5.984;2024-03-02T14:45:56;13.75;57.09
47861;HTU21D;33620;52.340;5.984;2024-03-02T14:48:22;13.80;57.02
47861;HTU21D;33620;52.340;5.984;2024-03-02T14:50:47;13.74;56.25
47861;HTU21D;33620;52.340;5.984;2024-03-02T14:53:13;13.75;56.77
47861;HTU21D;33620;52.340;5.984;2024-03-02T14:55:38;13.78;57.37
47861;HTU21D;33620;52.340;5.984;2024-03-02T14:58:04;13.70;56.12
47861;HTU21D;33620;52.340;5.984;2024-03-02T15:00:29;13.75;57.46
47861;HTU21D;33620;52.340;5.984;2024-03-02T15:02:55;13.79;57.69
47861;HTU21D;33620;52.340;5.984;2024-03-02T15:05:20;13.86;58.10
47861;HTU21D;33620;52.340;5.984;2024-03-02T15:07:45;13.82;56.54
47861;HTU21D;33620;52.340;5.984;2024-03-02T15:10:11;13.75;56.61
47861;HTU21D;33620;52.340;5.984;2024-03-02T15:12:37;13.76;56.09
47861;HTU21D;33620;52.340;5.984;2024-03-02T15:15:03;13.78;56.10
47861;HTU21D;33620;52.340;5.984;2024-03-02T15:17:29;13.75;56.53
47861;HTU21D;33620;52.340;5.984;2024-03-02T15:19:54;13.81;57.05
47861;HTU21D;33620;52.340;5.984;2024-03-02T15:22:19;13.84;57.43
47861;HTU21D;33620;52.340;5.984;2024-03-02T15:24:45;13.85;56.37
47861;HTU21D;33620;52.340;5.984;2024-03-02T15:27:10;13.84;56.25
47861;HTU21D;33620;52.340;5.984;2024-03-02T15:29:35;13.86;55.70